createdAt,value
2019-04-28T00:02:10.992Z,20.33
2019-04-28T00:04:41.572Z,17.87
2019-04-28T00:07:11.995Z,16.60
2019-04-28T00:09:41.853Z,20.20
2019-04-28T00:12:11.708Z,17.93
2019-04-28T00:14:42.610Z,17.90
2019-04-28T00:17:12.386Z,20.00
2019-04-28T00:19:42.205Z,18.83
2019-04-28T00:22:20.955Z,18.90
2019-04-28T00:24:55.205Z,17.27
2019-04-28T00:27:24.913Z,18.30
2019-04-28T00:29:54.608Z,21.43
2019-04-28T00:32:24.409Z,15.37
2019-04-28T00:34:54.219Z,18.70
2019-04-28T00:37:25.644Z,15.00
2019-04-28T00:39:55.689Z,18.73
2019-04-28T00:42:25.527Z,14.80
2019-04-28T00:44:55.282Z,18.50
2019-04-28T00:47:25.162Z,18.00
2019-04-28T00:49:54.959Z,21.30
2019-04-28T00:52:24.753Z,14.53
2019-04-28T00:54:54.575Z,19.13
2019-04-28T00:57:24.438Z,15.83
2019-04-28T00:59:58.551Z,14.00
2019-04-28T01:02:31.157Z,14.10
2019-04-28T01:05:01.829Z,17.07
2019-04-28T01:07:33.085Z,17.57
2019-04-28T01:10:03.253Z,18.47
2019-04-28T01:12:33.028Z,19.80
2019-04-28T01:15:04.883Z,21.17
2019-04-28T01:17:39.802Z,20.37
2019-04-28T01:20:14.029Z,23.53
2019-04-28T01:22:43.726Z,21.93
2019-04-28T01:25:13.614Z,17.87
2019-04-28T01:27:45.029Z,24.80
2019-04-28T01:30:16.549Z,22.50
2019-04-28T01:32:49.778Z,26.30
2019-04-28T01:35:21.048Z,21.77
2019-04-28T01:37:50.966Z,22.60
2019-04-28T01:40:20.901Z,21.70
2019-04-28T01:42:50.598Z,21.90
2019-04-28T01:45:20.684Z,21.33
2019-04-28T01:47:50.577Z,21.23
2019-04-28T01:50:20.651Z,22.47
2019-04-28T01:52:51.561Z,22.57
2019-04-28T01:55:21.521Z,28.60
2019-04-28T01:57:51.330Z,22.70
2019-04-28T02:00:25.492Z,24.87
2019-04-28T02:02:53.473Z,24.73
2019-04-28T02:05:23.332Z,27.17
2019-04-28T02:07:53.114Z,23.90
2019-04-28T02:10:22.951Z,26.60
2019-04-28T02:12:52.846Z,22.67
2019-04-28T02:15:22.745Z,24.93
2019-04-28T02:17:52.548Z,26.17
2019-04-28T02:20:23.420Z,26.23
2019-04-28T02:22:54.794Z,26.30
2019-04-28T02:25:24.658Z,26.47
2019-04-28T02:27:57.058Z,29.07
2019-04-28T02:30:40.936Z,25.13
2019-04-28T02:32:57.763Z,28.50
2019-04-28T02:35:27.542Z,24.93
2019-04-28T02:37:57.340Z,27.53
2019-04-28T02:40:27.121Z,32.20
2019-04-28T02:42:56.917Z,29.67
2019-04-28T02:45:26.693Z,30.77
2019-04-28T02:47:58.082Z,32.00
2019-04-28T02:50:40.966Z,30.90
2019-04-28T02:53:14.420Z,28.53
2019-04-28T02:55:44.285Z,31.13
2019-04-28T02:58:14.156Z,28.20
2019-04-28T03:01:01.359Z,28.80
2019-04-28T03:03:15.656Z,34.10
2019-04-28T03:05:45.463Z,38.37
2019-04-28T03:08:15.337Z,32.80
2019-04-28T03:10:45.172Z,36.10
2019-04-28T03:13:15.052Z,36.37
2019-04-28T03:15:44.824Z,37.07
2019-04-28T03:18:14.730Z,34.67
2019-04-28T03:20:44.598Z,33.77
2019-04-28T03:23:14.496Z,35.03
2019-04-28T03:25:45.926Z,41.17
2019-04-28T03:28:17.346Z,41.47
2019-04-28T03:30:53.313Z,41.10
2019-04-28T03:33:25.638Z,39.17
2019-04-28T03:35:54.151Z,33.23
2019-04-28T03:38:24.082Z,37.67
2019-04-28T03:40:53.836Z,33.67
2019-04-28T03:43:23.590Z,36.27
2019-04-28T03:46:04.018Z,40.23
2019-04-28T03:48:33.972Z,36.80
2019-04-28T03:51:03.852Z,40.90
2019-04-28T03:53:33.693Z,41.53
2019-04-28T03:56:03.531Z,40.50
2019-04-28T03:58:33.276Z,32.67
2019-04-28T04:01:03.478Z,34.20
2019-04-28T04:03:33.302Z,32.43
2019-04-28T04:06:03.067Z,37.43
2019-04-28T04:08:32.881Z,32.67
2019-04-28T04:11:20.270Z,32.03
2019-04-28T04:13:54.981Z,35.53
2019-04-28T04:16:30.821Z,31.20
2019-04-28T04:19:02.477Z,32.73
2019-04-28T04:21:32.390Z,36.40
2019-04-28T04:24:02.187Z,34.77
2019-04-28T04:26:33.517Z,36.07
2019-04-28T04:29:03.669Z,35.73
2019-04-28T04:31:33.485Z,31.13
2019-04-28T04:34:03.632Z,31.30
2019-04-28T04:36:33.351Z,31.63
2019-04-28T04:39:03.257Z,25.83
2019-04-28T04:41:33.029Z,30.33
2019-04-28T04:44:02.888Z,32.20
2019-04-28T04:46:32.695Z,32.23
2019-04-28T04:49:02.582Z,27.70
2019-04-28T04:51:32.387Z,25.70
2019-04-28T04:54:02.358Z,28.07
2019-04-28T04:56:32.204Z,26.17
2019-04-28T04:59:02.814Z,29.90
2019-04-28T05:01:34.471Z,23.57
2019-04-28T05:04:15.322Z,27.20
2019-04-28T05:06:45.027Z,28.00
2019-04-28T05:09:14.870Z,27.80
2019-04-28T05:11:44.685Z,30.43
2019-04-28T05:14:14.395Z,21.33
2019-04-28T05:16:44.201Z,26.60
2019-04-28T05:19:13.986Z,24.87
2019-04-28T05:21:43.724Z,30.30
2019-04-28T05:24:17.802Z,23.90
2019-04-28T05:26:51.392Z,23.80
2019-04-28T05:29:26.531Z,24.03
2019-04-28T05:31:54.716Z,20.93
2019-04-28T05:34:24.204Z,25.07
2019-04-28T05:36:57.815Z,19.13
2019-04-28T05:39:29.299Z,21.50
2019-04-28T05:42:00.851Z,23.37
2019-04-28T05:44:32.065Z,22.53
2019-04-28T05:47:02.236Z,21.33
2019-04-28T05:49:39.791Z,21.20
2019-04-28T05:52:29.910Z,24.03
2019-04-28T05:55:12.140Z,20.47
2019-04-28T05:58:22.665Z,17.43
2019-04-28T06:00:54.327Z,23.30
2019-04-28T06:09:54.312Z,23.23
2019-04-28T06:12:40.552Z,23.40
2019-04-28T06:15:31.689Z,23.87
2019-04-28T06:18:26.521Z,21.87
2019-04-28T06:21:11.323Z,20.60
2019-04-28T06:23:49.228Z,24.53
2019-04-28T06:26:39.579Z,19.63
2019-04-28T06:29:26.897Z,23.00
2019-04-28T06:32:01.074Z,19.87
2019-04-28T06:34:37.472Z,20.10
2019-04-28T06:37:26.876Z,22.77
2019-04-28T06:39:59.897Z,16.17
2019-04-28T06:42:36.646Z,18.43
2019-04-28T06:45:08.667Z,20.97
2019-04-28T06:47:39.719Z,21.20
2019-04-28T06:50:11.335Z,18.73
2019-04-28T06:52:53.650Z,20.13
2019-04-28T06:55:25.477Z,15.53
2019-04-28T06:57:57.811Z,21.80
2019-04-28T07:00:29.167Z,22.50
2019-04-28T07:03:00.568Z,17.60
2019-04-28T07:05:31.756Z,17.50
2019-04-28T07:08:03.354Z,27.30
2019-04-28T07:10:34.982Z,23.90
2019-04-28T07:13:06.039Z,16.70
2019-04-28T07:15:38.395Z,18.50
2019-04-28T07:18:09.680Z,19.90
2019-04-28T07:20:44.986Z,21.30
2019-04-28T07:23:16.524Z,20.23
2019-04-28T07:25:47.708Z,20.60
2019-04-28T07:28:18.829Z,18.07
2019-04-28T07:30:50.050Z,17.57
2019-04-28T07:33:20.655Z,17.17
2019-04-28T07:35:51.799Z,18.53
2019-04-28T07:38:22.494Z,18.43
2019-04-28T07:40:54.239Z,18.00
2019-04-28T07:43:24.965Z,15.67
2019-04-28T07:45:56.488Z,17.87
2019-04-28T07:48:27.873Z,20.83
2019-04-28T07:50:58.779Z,19.10
2019-04-28T07:53:36.866Z,20.47
2019-04-28T07:56:09.722Z,20.00
2019-04-28T07:58:40.545Z,22.57
2019-04-28T08:01:16.837Z,20.67
2019-04-28T08:03:49.805Z,18.70
2019-04-28T08:06:19.843Z,19.73
2019-04-28T08:08:50.605Z,17.30
2019-04-28T08:11:21.611Z,18.50
2019-04-28T08:13:54.223Z,16.90
2019-04-28T08:16:25.533Z,19.07
2019-04-28T08:18:57.116Z,16.10
2019-04-28T08:21:27.411Z,19.83
2019-04-28T08:24:01.599Z,19.83
2019-04-28T08:26:33.003Z,16.70
2019-04-28T08:29:05.657Z,17.93
2019-04-28T08:31:38.894Z,16.80
2019-04-28T08:34:15.799Z,20.13
2019-04-28T08:36:46.195Z,20.73
2019-04-28T08:39:17.172Z,17.30
2019-04-28T08:41:48.118Z,16.37
2019-04-28T08:44:18.701Z,18.17
2019-04-28T08:46:50.383Z,18.00
2019-04-28T08:49:21.591Z,16.23
2019-04-28T08:51:53.355Z,12.70
2019-04-28T08:54:25.134Z,14.70
2019-04-28T08:56:59.702Z,12.53
2019-04-28T08:59:31.791Z,16.83
2019-04-28T09:02:06.191Z,24.27
2019-04-28T09:04:37.751Z,17.37
2019-04-28T09:07:07.553Z,19.07
2019-04-28T09:09:38.524Z,20.33
2019-04-28T09:12:08.542Z,19.93
2019-04-28T09:14:40.251Z,18.07
2019-04-28T09:17:11.764Z,15.40
2019-04-28T09:19:45.534Z,17.23
2019-04-28T09:22:16.930Z,19.00
2019-04-28T09:24:47.943Z,19.30
2019-04-28T09:27:19.224Z,17.47
2019-04-28T09:29:51.254Z,16.20
2019-04-28T09:32:21.642Z,16.00
2019-04-28T09:34:52.772Z,18.03
2019-04-28T09:37:28.861Z,20.27
2019-04-28T09:40:00.806Z,13.10
2019-04-28T09:42:36.788Z,15.57
2019-04-28T09:45:25.209Z,14.03
2019-04-28T09:47:56.230Z,16.63
2019-04-28T09:50:27.406Z,13.07
2019-04-28T09:52:58.465Z,13.67
2019-04-28T09:55:30.333Z,12.07
2019-04-28T09:58:01.409Z,12.33
2019-04-28T10:00:33.542Z,12.13
2019-04-28T10:03:04.859Z,16.47
2019-04-28T10:05:36.440Z,16.43
2019-04-28T10:08:07.098Z,12.67
2019-04-28T10:10:38.122Z,12.57
2019-04-28T10:13:10.257Z,12.77
2019-04-28T10:15:40.774Z,10.97
2019-04-28T10:18:12.203Z,16.57
2019-04-28T10:20:43.207Z,15.03
2019-04-28T10:23:14.467Z,8.83
2019-04-28T10:25:46.324Z,8.13
2019-04-28T10:28:16.564Z,7.53
2019-04-28T10:30:47.871Z,12.80
2019-04-28T10:33:18.912Z,11.30
2019-04-28T10:35:50.387Z,11.47
2019-04-28T10:38:21.899Z,10.03
2019-04-28T10:40:54.001Z,13.40
2019-04-28T10:43:25.372Z,13.07
2019-04-28T10:45:56.200Z,13.50
2019-04-28T10:48:27.649Z,8.90
2019-04-28T10:51:01.208Z,13.43
2019-04-28T10:53:32.172Z,10.63
2019-04-28T10:56:03.422Z,13.47
2019-04-28T10:58:34.623Z,13.90
2019-04-28T11:01:07.355Z,13.63
2019-04-28T11:03:38.768Z,9.00
2019-04-28T11:06:12.446Z,9.10
2019-04-28T11:08:59.002Z,13.97
2019-04-28T11:11:29.884Z,8.00
2019-04-28T11:14:00.317Z,11.37
2019-04-28T11:16:33.375Z,9.93
2019-04-28T11:19:04.202Z,8.77
2019-04-28T11:21:35.276Z,7.07
2019-04-28T11:24:06.087Z,6.57
2019-04-28T11:26:37.905Z,7.87
2019-04-28T11:29:09.780Z,7.87
2019-04-28T11:31:40.903Z,8.63
2019-04-28T11:34:15.823Z,9.60
2019-04-28T11:36:47.465Z,8.90
2019-04-28T11:39:19.647Z,7.90
2019-04-28T11:41:51.142Z,5.73
2019-04-28T11:44:22.685Z,6.57
2019-04-28T11:46:52.827Z,7.57
2019-04-28T11:49:25.144Z,11.27
2019-04-28T11:51:56.977Z,10.17
2019-04-28T11:54:38.087Z,8.27
2019-04-28T11:57:19.346Z,14.67
2019-04-28T12:00:02.720Z,9.93
2019-04-28T12:02:41.935Z,10.00
2019-04-28T12:05:19.809Z,13.40
2019-04-28T12:07:58.179Z,14.00
2019-04-28T12:10:30.810Z,10.13
2019-04-28T12:13:07.746Z,8.63
2019-04-28T12:15:54.561Z,10.83
2019-04-28T12:18:26.693Z,9.33
2019-04-28T12:20:57.672Z,12.70
2019-04-28T12:23:28.771Z,11.47
2019-04-28T12:26:01.489Z,12.47
2019-04-28T12:28:34.044Z,9.30
2019-04-28T12:31:05.695Z,8.00
2019-04-28T12:33:36.279Z,11.17
2019-04-28T12:36:09.073Z,10.67
2019-04-28T12:38:40.021Z,13.40
2019-04-28T12:41:12.122Z,9.93
2019-04-28T12:43:43.992Z,11.60
2019-04-28T12:46:15.035Z,7.87
2019-04-28T12:48:45.833Z,8.57
2019-04-28T12:51:17.307Z,9.70
2019-04-28T12:53:49.695Z,7.80
2019-04-28T12:56:21.026Z,12.80
2019-04-28T12:58:54.102Z,9.23
2019-04-28T13:01:26.849Z,9.07
2019-04-28T13:04:12.316Z,9.40
2019-04-28T13:06:44.139Z,10.67
2019-04-28T13:09:15.165Z,8.30
2019-04-28T13:11:46.558Z,11.87
2019-04-28T13:14:18.302Z,9.13
2019-04-28T13:16:50.528Z,10.77
2019-04-28T13:19:21.363Z,9.30
2019-04-28T13:22:15.905Z,10.00
2019-04-28T13:25:02.338Z,11.47
2019-04-28T13:27:42.042Z,10.23
2019-04-28T13:30:14.959Z,12.57
2019-04-28T13:32:46.446Z,12.40
2019-04-28T13:35:17.942Z,12.47
2019-04-28T13:37:49.683Z,14.27
2019-04-28T13:40:28.962Z,11.00
2019-04-28T13:42:58.407Z,8.77
2019-04-28T13:45:30.682Z,11.70
2019-04-28T13:48:02.624Z,15.37
2019-04-28T13:50:37.694Z,11.53
2019-04-28T13:53:09.395Z,9.90
2019-04-28T13:55:47.417Z,11.50
2019-04-28T13:58:19.509Z,11.63
2019-04-28T14:00:52.092Z,13.10
2019-04-28T14:03:46.530Z,13.83
2019-04-28T14:06:28.084Z,15.20
2019-04-28T14:08:53.440Z,11.40
2019-04-28T14:11:24.517Z,11.93
2019-04-28T14:13:56.155Z,13.83
2019-04-28T14:16:27.663Z,12.30
2019-04-28T14:18:59.434Z,11.70
2019-04-28T14:21:30.238Z,10.63
2019-04-28T14:24:01.324Z,11.17
2019-04-28T14:26:31.714Z,8.67
2019-04-28T14:29:07.454Z,8.80
2019-04-28T14:31:38.887Z,8.60
2019-04-28T14:34:10.770Z,8.23
2019-04-28T14:36:42.615Z,8.10
2019-04-28T14:39:14.215Z,9.30
2019-04-28T14:41:45.647Z,8.83
2019-04-28T14:44:17.898Z,7.53
2019-04-28T14:46:49.781Z,8.30
2019-04-28T14:49:20.849Z,7.33
2019-04-28T14:51:51.836Z,7.97
2019-04-28T14:54:23.205Z,6.30
2019-04-28T14:56:54.354Z,6.13
2019-04-28T14:59:25.685Z,7.53
2019-04-28T15:02:10.622Z,7.30
2019-04-28T15:04:58.309Z,8.43
2019-04-28T15:07:42.468Z,6.77
2019-04-28T15:10:31.813Z,9.43
2019-04-28T15:13:03.083Z,9.17
2019-04-28T15:15:33.711Z,8.07
2019-04-28T15:18:05.620Z,9.73
2019-04-28T15:20:36.958Z,9.30
2019-04-28T15:23:07.327Z,7.17
2019-04-28T15:25:38.075Z,6.47
2019-04-28T15:28:09.807Z,8.83
2019-04-28T15:30:40.624Z,8.07
2019-04-28T15:33:11.263Z,9.83
2019-04-28T15:35:43.019Z,10.00
2019-04-28T15:38:14.111Z,7.57
2019-04-28T15:40:43.955Z,7.93
2019-04-28T15:43:13.750Z,8.33
2019-04-28T15:45:43.658Z,9.60
2019-04-28T15:48:13.544Z,8.63
2019-04-28T15:50:43.318Z,9.30
2019-04-28T15:53:13.272Z,9.63
2019-04-28T15:55:56.648Z,9.17
2019-04-28T15:58:29.889Z,8.03
2019-04-28T16:01:00.008Z,8.37
2019-04-28T16:03:29.924Z,9.10
2019-04-28T16:06:00.196Z,6.23
2019-04-28T16:08:30.016Z,8.93
2019-04-28T16:10:59.871Z,9.57
2019-04-28T16:13:30.030Z,7.90
2019-04-28T16:15:59.910Z,9.37
2019-04-28T16:18:29.763Z,8.37
2019-04-28T16:20:59.743Z,8.80
2019-04-28T16:23:29.642Z,8.73
2019-04-28T16:25:59.708Z,7.83
2019-04-28T16:28:29.489Z,7.97
2019-04-28T16:30:59.351Z,9.53
2019-04-28T16:33:29.131Z,10.10
2019-04-28T16:35:59.050Z,7.30
2019-04-28T16:38:28.917Z,9.77
2019-04-28T16:41:01.149Z,9.23
2019-04-28T16:43:37.518Z,7.73
2019-04-28T16:46:10.630Z,9.70
2019-04-28T16:48:45.674Z,7.67
2019-04-28T16:51:16.821Z,7.67
2019-04-28T16:53:48.315Z,10.93
2019-04-28T16:56:39.782Z,8.00
2019-04-28T16:59:22.370Z,6.47
2019-04-28T17:02:02.394Z,9.27
2019-04-28T17:04:43.957Z,7.73
2019-04-28T17:07:14.515Z,7.77
2019-04-28T17:09:44.315Z,9.10
2019-04-28T17:12:14.174Z,8.87
2019-04-28T17:14:44.317Z,6.73
2019-04-28T17:17:14.157Z,8.13
2019-04-28T17:19:44.134Z,7.40
2019-04-28T17:22:15.531Z,6.97
2019-04-28T17:24:46.356Z,6.83
2019-04-28T17:27:17.923Z,8.63
2019-04-28T17:29:51.056Z,7.37
2019-04-28T17:32:23.956Z,6.50
2019-04-28T17:34:55.853Z,6.90
2019-04-28T17:37:27.428Z,6.93
2019-04-28T17:40:00.462Z,9.83
2019-04-28T17:42:37.452Z,7.07
2019-04-28T17:45:11.087Z,8.00
2019-04-28T17:47:43.019Z,8.90
2019-04-28T17:50:15.553Z,9.67
2019-04-28T17:52:46.633Z,8.63
2019-04-28T17:55:20.102Z,6.87
2019-04-28T17:57:49.848Z,9.57
2019-04-28T18:00:28.543Z,9.60
2019-04-28T18:03:08.707Z,9.60
2019-04-28T18:05:40.089Z,7.10
2019-04-28T18:08:20.929Z,9.03
2019-04-28T18:10:42.635Z,9.67
2019-04-28T18:13:12.585Z,10.83
2019-04-28T18:15:56.207Z,6.93
2019-04-28T18:18:27.624Z,5.37
2019-04-28T18:20:57.492Z,8.43
2019-04-28T18:23:27.298Z,8.50
2019-04-28T18:25:57.109Z,9.10
2019-04-28T18:28:26.946Z,8.90
2019-04-28T18:30:58.410Z,9.60
2019-04-28T18:33:38.661Z,10.23
2019-04-28T18:36:10.071Z,9.40
2019-04-28T18:38:46.960Z,11.33
2019-04-28T18:41:21.139Z,11.63
2019-04-28T18:44:04.599Z,9.73
2019-04-28T18:46:34.345Z,9.17
2019-04-28T18:49:05.278Z,9.20
2019-04-28T18:51:35.210Z,9.93
2019-04-28T18:54:05.073Z,12.43
2019-04-28T18:56:34.937Z,9.33
2019-04-28T18:59:04.778Z,12.07
2019-04-28T19:01:39.252Z,9.20
2019-04-28T19:04:08.936Z,11.77
2019-04-28T19:06:38.799Z,8.10
2019-04-28T19:09:20.982Z,11.23
2019-04-28T19:11:55.454Z,12.27
2019-04-28T19:14:29.614Z,9.07
2019-04-28T19:17:16.163Z,11.03
2019-04-28T19:19:46.912Z,12.50
2019-04-28T19:22:16.763Z,11.27
2019-04-28T19:24:46.605Z,11.53
2019-04-28T19:27:16.338Z,12.97
2019-04-28T19:29:46.115Z,13.90
2019-04-28T19:32:15.887Z,10.73
2019-04-28T19:34:45.675Z,9.63
2019-04-28T19:37:15.970Z,11.63
2019-04-28T19:39:45.653Z,10.77
2019-04-28T19:42:15.522Z,14.50
2019-04-28T19:44:45.679Z,13.07
2019-04-28T19:47:15.596Z,12.50
2019-04-28T19:49:45.517Z,14.97
2019-04-28T19:52:15.350Z,12.87
2019-04-28T19:55:05.085Z,14.77
2019-04-28T19:57:43.953Z,13.63
2019-04-28T20:00:27.014Z,16.37
2019-04-28T20:02:59.222Z,14.43
2019-04-28T20:05:30.997Z,17.60
2019-04-28T20:08:02.964Z,13.40
2019-04-28T20:10:36.221Z,16.87
2019-04-28T20:13:07.743Z,14.20
2019-04-28T20:15:39.197Z,13.70
2019-04-28T20:18:10.931Z,13.87
2019-04-28T20:20:41.921Z,15.60
2019-04-28T20:23:12.359Z,22.67
2019-04-28T20:25:43.437Z,14.50
2019-04-28T20:28:15.639Z,18.30
2019-04-28T20:30:47.165Z,13.80
2019-04-28T20:33:19.107Z,13.87
2019-04-28T20:35:58.823Z,13.67
2019-04-28T20:38:31.403Z,18.30
2019-04-28T20:41:17.958Z,16.17
2019-04-28T20:43:49.210Z,19.30
2019-04-28T20:46:21.289Z,18.07
2019-04-28T20:48:52.891Z,18.97
2019-04-28T20:51:23.593Z,15.20
2019-04-28T20:53:55.546Z,15.03
2019-04-28T20:56:27.145Z,15.10
2019-04-28T20:58:58.512Z,15.60
2019-04-28T21:01:29.998Z,16.30
2019-04-28T21:03:59.907Z,17.07
2019-04-28T21:06:30.724Z,16.10
2019-04-28T21:09:00.673Z,15.13
2019-04-28T21:11:30.770Z,16.33
2019-04-28T21:14:00.668Z,18.53
2019-04-28T21:16:30.496Z,18.00
2019-04-28T21:19:00.290Z,17.73
2019-04-28T21:21:31.187Z,18.53
2019-04-28T21:24:00.992Z,16.33
2019-04-28T21:26:30.722Z,16.13
2019-04-28T21:29:00.688Z,17.10
2019-04-28T21:31:32.770Z,18.50
2019-04-28T21:34:02.023Z,16.60
2019-04-28T21:36:31.841Z,14.97
2019-04-28T21:39:01.624Z,19.13
2019-04-28T21:41:31.419Z,18.50
2019-04-28T21:44:05.726Z,14.73
2019-04-28T21:46:40.159Z,14.83
2019-04-28T21:49:14.282Z,17.07
2019-04-28T21:51:44.032Z,18.07
2019-04-28T21:54:13.924Z,15.20
2019-04-28T21:56:43.749Z,16.43
2019-04-28T21:59:13.527Z,19.40
2019-04-28T22:01:43.586Z,18.67
2019-04-28T22:04:13.434Z,16.37
2019-04-28T22:06:43.307Z,16.70
2019-04-28T22:09:13.284Z,16.17
2019-04-28T22:11:43.096Z,17.33
2019-04-28T22:14:12.789Z,15.93
2019-04-28T22:16:42.646Z,17.27
2019-04-28T22:19:12.507Z,17.97
2019-04-28T22:21:42.376Z,20.10
2019-04-28T22:24:13.735Z,23.90
2019-04-28T22:26:47.993Z,17.93
2019-04-28T22:29:17.772Z,20.00
2019-04-28T22:31:47.828Z,19.60
2019-04-28T22:34:17.671Z,18.57
2019-04-28T22:36:47.636Z,19.03
2019-04-28T22:39:17.505Z,19.53
2019-04-28T22:41:47.341Z,17.60
2019-04-28T22:44:17.229Z,23.77
2019-04-28T22:46:47.063Z,16.27
2019-04-28T22:49:17.046Z,21.13
2019-04-28T22:51:46.879Z,16.63
2019-04-28T22:54:18.321Z,22.53
2019-04-28T22:56:49.739Z,19.53
2019-04-28T22:59:30.305Z,20.63
2019-04-28T23:02:04.929Z,22.67
2019-04-28T23:04:36.444Z,20.77
2019-04-28T23:07:06.386Z,17.77
2019-04-28T23:09:36.279Z,18.17
2019-04-28T23:12:06.589Z,19.40
2019-04-28T23:14:36.473Z,18.73
2019-04-28T23:17:07.888Z,21.57
2019-04-28T23:19:44.118Z,23.50
2019-04-28T23:22:18.526Z,19.13
2019-04-28T23:24:48.392Z,21.70
2019-04-28T23:27:18.263Z,22.73
2019-04-28T23:29:48.075Z,24.10
2019-04-28T23:32:17.864Z,19.90
2019-04-28T23:34:47.743Z,20.20
2019-04-28T23:37:17.515Z,22.00
2019-04-28T23:39:47.307Z,20.83
2019-04-28T23:42:27.424Z,19.77
2019-04-28T23:44:57.229Z,21.97
2019-04-28T23:47:27.084Z,21.73
2019-04-28T23:49:57.343Z,18.30
2019-04-28T23:52:28.768Z,18.97
2019-04-28T23:55:00.264Z,17.87
2019-04-28T23:57:30.120Z,19.47
2019-04-28T23:59:59.916Z,16.90
